createdAt,value
2018-03-29T00:00:21.057Z,11.96
2018-03-29T00:01:01.631Z,11.95
2018-03-29T00:01:42.139Z,11.91
2018-03-29T00:02:22.629Z,11.86
2018-03-29T00:03:03.133Z,11.91
2018-03-29T00:03:43.647Z,11.94
2018-03-29T00:04:24.151Z,11.9
2018-03-29T00:05:04.661Z,11.82
2018-03-29T00:05:45.202Z,11.82
2018-03-29T00:06:25.713Z,11.7
2018-03-29T00:07:06.329Z,11.79
2018-03-29T00:07:46.791Z,11.73
2018-03-29T00:08:27.309Z,11.75
2018-03-29T00:09:07.808Z,11.6
2018-03-29T00:09:48.320Z,11.65
2018-03-29T00:10:28.824Z,11.67
2018-03-29T00:11:09.338Z,11.54
2018-03-29T00:11:49.850Z,11.52
2018-03-29T00:12:30.359Z,11.51
2018-03-29T00:13:10.885Z,11.55
2018-03-29T00:13:51.364Z,11.54
2018-03-29T00:14:31.960Z,11.57
2018-03-29T00:15:12.478Z,11.57
2018-03-29T00:15:52.997Z,11.58
2018-03-29T00:16:33.520Z,11.54
2018-03-29T00:17:14.352Z,11.54
2018-03-29T00:17:54.732Z,11.39
2018-03-29T00:18:35.254Z,11.28
2018-03-29T00:19:15.775Z,11.43
2018-03-29T00:19:56.270Z,11.39
2018-03-29T00:20:36.762Z,11.47
2018-03-29T00:21:17.268Z,11.36
2018-03-29T00:21:57.793Z,11.43
2018-03-29T00:22:38.302Z,11.47
2018-03-29T00:23:18.815Z,11.54
2018-03-29T00:23:59.331Z,11.6
2018-03-29T00:24:39.848Z,11.47
2018-03-29T00:25:20.406Z,11.4
2018-03-29T00:26:00.907Z,11.37
2018-03-29T00:26:41.417Z,11.37
2018-03-29T00:27:21.969Z,11.4
2018-03-29T00:28:02.466Z,11.4
2018-03-29T00:28:42.991Z,11.43
2018-03-29T00:29:23.512Z,11.44
2018-03-29T00:30:04.077Z,11.51
2018-03-29T00:30:44.539Z,11.39
2018-03-29T00:31:25.052Z,11.32
2018-03-29T00:32:05.567Z,11.37
2018-03-29T00:32:46.073Z,11.51
2018-03-29T00:33:26.579Z,11.54
2018-03-29T00:34:07.106Z,11.49
2018-03-29T00:34:47.622Z,11.39
2018-03-29T00:35:28.145Z,11.33
2018-03-29T00:36:08.654Z,11.32
2018-03-29T00:36:49.161Z,11.28
2018-03-29T00:37:29.688Z,11.19
2018-03-29T00:38:10.186Z,11.18
2018-03-29T00:38:50.705Z,11.19
2018-03-29T00:39:31.220Z,11.19
2018-03-29T00:40:11.736Z,11.27
2018-03-29T00:40:52.242Z,11.32
2018-03-29T00:41:32.742Z,11.18
2018-03-29T00:42:13.259Z,11.11
2018-03-29T00:42:53.959Z,10.97
2018-03-29T00:43:34.409Z,11
2018-03-29T00:44:14.905Z,10.96
2018-03-29T00:44:55.423Z,10.99
2018-03-29T00:45:35.901Z,11.07
2018-03-29T00:46:16.411Z,11.09
2018-03-29T00:46:56.916Z,11.17
2018-03-29T00:47:37.458Z,11.11
2018-03-29T00:48:17.952Z,11.17
2018-03-29T00:48:58.466Z,11.21
2018-03-29T00:49:39.003Z,11.07
2018-03-29T00:50:19.499Z,10.99
2018-03-29T00:51:00.021Z,10.94
2018-03-29T00:51:40.539Z,11.02
2018-03-29T00:52:21.093Z,11
2018-03-29T00:53:01.612Z,10.92
2018-03-29T00:53:42.117Z,11.03
2018-03-29T00:54:22.654Z,11
2018-03-29T00:55:03.162Z,10.96
2018-03-29T00:55:43.758Z,11
2018-03-29T00:56:24.293Z,11
2018-03-29T00:57:04.788Z,10.97
2018-03-29T00:57:45.299Z,11.04
2018-03-29T00:58:25.799Z,11.07
2018-03-29T00:59:06.319Z,10.96
2018-03-29T00:59:46.831Z,11.11
2018-03-29T01:00:27.340Z,11.21
2018-03-29T01:01:07.845Z,11.15
2018-03-29T01:01:48.350Z,11.21
2018-03-29T01:02:28.864Z,11.06
2018-03-29T01:03:09.390Z,11.09
2018-03-29T01:03:49.879Z,11.07
2018-03-29T01:04:30.391Z,11
2018-03-29T01:05:10.882Z,10.96
2018-03-29T01:05:51.404Z,10.99
2018-03-29T01:06:31.859Z,10.91
2018-03-29T01:07:12.357Z,10.92
2018-03-29T01:07:52.869Z,10.79
2018-03-29T01:08:33.393Z,10.86
2018-03-29T01:09:14.074Z,10.97
2018-03-29T01:09:54.498Z,10.92
2018-03-29T01:10:34.922Z,10.78
2018-03-29T01:11:15.450Z,10.96
2018-03-29T01:11:55.954Z,10.89
2018-03-29T01:12:36.414Z,10.78
2018-03-29T01:13:16.920Z,10.85
2018-03-29T01:13:57.388Z,10.81
2018-03-29T01:14:37.863Z,10.84
2018-03-29T01:15:18.346Z,10.79
2018-03-29T01:15:58.865Z,10.73
2018-03-29T01:16:39.321Z,10.61
2018-03-29T01:17:19.852Z,10.74
2018-03-29T01:18:00.330Z,10.7
2018-03-29T01:18:40.766Z,10.56
2018-03-29T01:19:21.304Z,10.64
2018-03-29T01:20:01.793Z,10.59
2018-03-29T01:20:42.318Z,10.59
2018-03-29T01:21:22.778Z,10.52
2018-03-29T01:22:03.307Z,10.59
2018-03-29T01:22:43.827Z,10.52
2018-03-29T01:23:24.277Z,10.53
2018-03-29T01:24:04.778Z,10.56
2018-03-29T01:24:45.287Z,10.61
2018-03-29T01:25:25.763Z,10.64
2018-03-29T01:26:06.279Z,10.64
2018-03-29T01:26:46.704Z,10.81
2018-03-29T01:27:27.177Z,10.73
2018-03-29T01:28:07.708Z,10.66
2018-03-29T01:28:48.180Z,10.6
2018-03-29T01:29:28.646Z,10.71
2018-03-29T01:30:09.106Z,10.73
2018-03-29T01:30:49.589Z,10.67
2018-03-29T01:31:30.097Z,10.68
2018-03-29T01:32:10.622Z,10.73
2018-03-29T01:32:51.088Z,10.76
2018-03-29T01:33:31.636Z,10.73
2018-03-29T01:34:12.073Z,10.63
2018-03-29T01:34:52.620Z,10.61
2018-03-29T01:35:33.068Z,10.64
2018-03-29T01:36:13.563Z,10.71
2018-03-29T01:36:54.089Z,10.76
2018-03-29T01:37:34.596Z,10.85
2018-03-29T01:38:15.102Z,10.97
2018-03-29T01:38:55.613Z,10.96
2018-03-29T01:39:36.123Z,10.99
2018-03-29T01:40:16.647Z,10.88
2018-03-29T01:40:57.164Z,10.78
2018-03-29T01:41:37.657Z,10.85
2018-03-29T01:42:18.162Z,10.91
2018-03-29T01:42:58.669Z,10.82
2018-03-29T01:43:39.181Z,10.81
2018-03-29T01:44:19.699Z,10.82
2018-03-29T01:45:00.174Z,10.79
2018-03-29T01:45:40.672Z,10.61
2018-03-29T01:46:21.190Z,10.64
2018-03-29T01:47:01.709Z,10.61
2018-03-29T01:47:42.220Z,10.63
2018-03-29T01:48:22.744Z,10.6
2018-03-29T01:49:03.238Z,10.53
2018-03-29T01:49:43.748Z,10.48
2018-03-29T01:50:24.214Z,10.51
2018-03-29T01:51:04.689Z,10.59
2018-03-29T01:51:45.218Z,10.63
2018-03-29T01:52:25.712Z,10.63
2018-03-29T01:53:06.181Z,10.73
2018-03-29T01:53:46.733Z,10.59
2018-03-29T01:54:27.252Z,10.76
2018-03-29T01:55:07.676Z,10.67
2018-03-29T01:55:48.155Z,10.68
2018-03-29T01:56:28.649Z,10.71
2018-03-29T01:57:09.192Z,10.73
2018-03-29T01:57:49.682Z,10.76
2018-03-29T01:58:30.178Z,10.78
2018-03-29T01:59:10.734Z,10.82
2018-03-29T01:59:51.212Z,10.82
2018-03-29T02:00:31.723Z,10.94
2018-03-29T02:01:12.241Z,10.97
2018-03-29T02:01:52.733Z,11.07
2018-03-29T02:02:33.228Z,10.99
2018-03-29T02:03:13.783Z,11.03
2018-03-29T02:03:54.283Z,10.94
2018-03-29T02:04:34.776Z,10.96
2018-03-29T02:05:15.280Z,10.99
2018-03-29T02:05:55.779Z,11.06
2018-03-29T02:06:36.244Z,11.06
2018-03-29T02:07:16.754Z,11.06
2018-03-29T02:07:57.255Z,11.06
2018-03-29T02:08:37.724Z,10.91
2018-03-29T02:09:18.280Z,11
2018-03-29T02:09:58.757Z,11
2018-03-29T02:10:39.238Z,11.04
2018-03-29T02:11:19.743Z,11.07
2018-03-29T02:12:00.253Z,11.14
2018-03-29T02:12:40.794Z,11.21
2018-03-29T02:13:21.302Z,11.18
2018-03-29T02:14:01.810Z,11.15
2018-03-29T02:14:42.317Z,11.15
2018-03-29T02:15:22.818Z,11.1
2018-03-29T02:16:03.356Z,11.11
2018-03-29T02:16:43.835Z,11.11
2018-03-29T02:17:24.332Z,11.07
2018-03-29T02:18:04.839Z,11
2018-03-29T02:18:45.330Z,10.97
2018-03-29T02:19:25.840Z,11.09
2018-03-29T02:20:06.380Z,11.09
2018-03-29T02:20:46.850Z,11.17
2018-03-29T02:21:27.341Z,11.15
2018-03-29T02:22:07.823Z,11.32
2018-03-29T02:22:48.427Z,11.33
2018-03-29T02:23:28.935Z,11.35
2018-03-29T02:24:09.446Z,11.18
2018-03-29T02:24:49.926Z,11.22
2018-03-29T02:25:30.420Z,11.28
2018-03-29T02:26:10.948Z,11.25
2018-03-29T02:26:51.458Z,11.24
2018-03-29T02:27:31.964Z,11.21
2018-03-29T02:28:12.465Z,11.18
2018-03-29T02:28:52.970Z,11.22
2018-03-29T02:29:33.459Z,11.21
2018-03-29T02:30:13.977Z,11.03
2018-03-29T02:30:54.469Z,11.04
2018-03-29T02:31:34.953Z,11.11
2018-03-29T02:32:15.447Z,11.06
2018-03-29T02:32:55.969Z,11.07
2018-03-29T02:33:36.472Z,11.06
2018-03-29T02:34:16.933Z,11
2018-03-29T02:34:57.512Z,11.06
2018-03-29T02:35:37.978Z,11.09
2018-03-29T02:36:18.438Z,11.07
2018-03-29T02:36:58.899Z,11.04
2018-03-29T02:37:39.549Z,11.17
2018-03-29T02:38:20.007Z,10.96
2018-03-29T02:39:00.466Z,10.96
2018-03-29T02:39:40.978Z,10.92
2018-03-29T02:40:21.481Z,11.04
2018-03-29T02:41:02.008Z,10.99
2018-03-29T02:41:42.473Z,10.81
2018-03-29T02:42:22.950Z,10.79
2018-03-29T02:43:03.502Z,10.84
2018-03-29T02:43:43.954Z,10.81
2018-03-29T02:44:24.445Z,10.88
2018-03-29T02:45:04.920Z,10.94
2018-03-29T02:45:45.446Z,10.94
2018-03-29T02:46:25.964Z,10.91
2018-03-29T02:47:06.431Z,10.97
2018-03-29T02:47:46.966Z,10.89
2018-03-29T02:48:27.448Z,10.81
2018-03-29T02:49:07.966Z,11
2018-03-29T02:49:48.445Z,10.92
2018-03-29T02:50:28.955Z,10.96
2018-03-29T02:51:09.499Z,10.99
2018-03-29T02:51:49.997Z,10.96
2018-03-29T02:52:30.490Z,11.06
2018-03-29T02:53:11.004Z,11.03
2018-03-29T02:53:51.516Z,11.14
2018-03-29T02:54:32.023Z,10.96
2018-03-29T02:55:12.541Z,11
2018-03-29T02:55:53.044Z,11.02
2018-03-29T02:56:33.558Z,10.96
2018-03-29T02:57:14.067Z,10.78
2018-03-29T02:57:54.577Z,10.86
2018-03-29T02:58:35.089Z,10.82
2018-03-29T02:59:15.574Z,10.92
2018-03-29T02:59:56.101Z,11
2018-03-29T03:00:36.639Z,10.82
2018-03-29T03:01:17.148Z,10.94
2018-03-29T03:01:57.650Z,10.97
2018-03-29T03:02:38.162Z,10.94
2018-03-29T03:03:18.674Z,10.89
2018-03-29T03:03:59.191Z,10.91
2018-03-29T03:04:39.705Z,10.85
2018-03-29T03:05:20.241Z,10.84
2018-03-29T03:06:00.724Z,10.76
2018-03-29T03:06:41.230Z,10.86
2018-03-29T03:07:21.754Z,10.79
2018-03-29T03:08:02.268Z,10.82
2018-03-29T03:08:42.793Z,10.81
2018-03-29T03:09:23.303Z,10.91
2018-03-29T03:10:03.813Z,10.82
2018-03-29T03:10:44.341Z,10.82
2018-03-29T03:11:24.868Z,10.78
2018-03-29T03:12:05.377Z,10.76
2018-03-29T03:12:45.882Z,10.68
2018-03-29T03:13:26.377Z,10.68
2018-03-29T03:14:06.888Z,10.64
2018-03-29T03:14:47.379Z,10.59
2018-03-29T03:15:27.895Z,10.74
2018-03-29T03:16:08.399Z,10.82
2018-03-29T03:18:03.279Z,10.82
2018-03-29T03:18:43.789Z,10.7
2018-03-29T03:19:24.310Z,10.82
2018-03-29T03:20:04.821Z,10.78
2018-03-29T03:20:45.340Z,10.59
2018-03-29T03:21:25.863Z,10.61
2018-03-29T03:22:06.379Z,10.67
2018-03-29T03:22:46.905Z,10.7
2018-03-29T03:23:27.419Z,10.61
2018-03-29T03:24:07.925Z,10.66
2018-03-29T03:24:48.432Z,10.61
2018-03-29T03:25:28.941Z,10.56
2018-03-29T03:26:09.449Z,10.64
2018-03-29T03:26:49.966Z,10.68
2018-03-29T03:27:30.488Z,10.81
2018-03-29T03:28:11.032Z,10.67
2018-03-29T03:28:51.549Z,10.63
2018-03-29T03:29:32.063Z,10.68
2018-03-29T03:30:12.571Z,10.63
2018-03-29T03:30:53.094Z,10.63
2018-03-29T03:31:33.606Z,10.34
2018-03-29T03:32:14.122Z,10.36
2018-03-29T03:32:54.637Z,10.4
2018-03-29T03:33:35.148Z,10.4
2018-03-29T03:34:15.669Z,10.51
2018-03-29T03:34:56.172Z,10.36
2018-03-29T03:35:36.790Z,10.32
2018-03-29T03:36:17.269Z,10.36
2018-03-29T03:36:57.787Z,10.33
2018-03-29T03:37:38.292Z,10.26
2018-03-29T03:38:18.812Z,10.26
2018-03-29T03:38:59.319Z,10.18
2018-03-29T03:39:39.839Z,10.18
2018-03-29T03:40:20.363Z,10.05
2018-03-29T03:41:00.874Z,10.12
2018-03-29T03:41:41.428Z,10.09
2018-03-29T03:42:21.914Z,10.05
2018-03-29T03:43:02.417Z,10.12
2018-03-29T03:43:42.922Z,9.94
2018-03-29T03:44:23.444Z,10.02
2018-03-29T03:45:03.942Z,10.01
2018-03-29T03:45:44.431Z,9.97
2018-03-29T03:46:24.927Z,9.96
2018-03-29T03:47:05.449Z,9.89
2018-03-29T03:47:45.952Z,9.89
2018-03-29T03:48:26.466Z,9.93
2018-03-29T03:49:06.968Z,9.93
2018-03-29T03:49:47.484Z,9.96
2018-03-29T03:50:28.020Z,9.94
2018-03-29T03:51:08.537Z,9.93
2018-03-29T03:51:49.056Z,9.94
2018-03-29T03:52:29.571Z,9.9
2018-03-29T03:53:10.082Z,9.91
2018-03-29T03:53:50.596Z,9.94
2018-03-29T03:54:31.110Z,9.91
2018-03-29T03:55:11.608Z,9.94
2018-03-29T03:55:52.120Z,9.83
2018-03-29T03:56:32.613Z,9.79
2018-03-29T03:57:13.126Z,9.84
2018-03-29T03:57:53.631Z,9.81
2018-03-29T03:58:34.120Z,9.97
2018-03-29T03:59:14.670Z,9.79
2018-03-29T03:59:55.133Z,9.89
2018-03-29T04:00:35.648Z,9.84
2018-03-29T04:01:16.137Z,9.86
2018-03-29T04:01:56.640Z,9.89
2018-03-29T04:02:37.163Z,9.79
2018-03-29T04:03:17.673Z,9.87
2018-03-29T04:03:58.177Z,9.78
2018-03-29T04:04:38.694Z,9.79
2018-03-29T04:05:19.204Z,9.81
2018-03-29T04:05:59.688Z,9.83
2018-03-29T04:06:40.199Z,9.79
2018-03-29T04:07:20.709Z,9.83
2018-03-29T04:08:01.232Z,9.83
2018-03-29T04:08:41.747Z,9.86
2018-03-29T04:09:22.255Z,9.84
2018-03-29T04:10:02.749Z,10.01
2018-03-29T04:10:43.256Z,9.86
2018-03-29T04:11:23.898Z,9.96
2018-03-29T04:12:04.396Z,9.9
2018-03-29T04:12:44.924Z,9.94
2018-03-29T04:13:25.439Z,9.99
2018-03-29T04:14:05.956Z,9.97
2018-03-29T04:14:46.462Z,9.97
2018-03-29T04:15:26.985Z,10.08
2018-03-29T04:16:07.494Z,9.99
2018-03-29T04:16:48.009Z,10.04
2018-03-29T04:17:28.529Z,9.91
2018-03-29T04:18:09.056Z,9.99
2018-03-29T04:18:49.558Z,9.97
2018-03-29T04:19:30.072Z,9.99
2018-03-29T04:20:10.581Z,9.97
2018-03-29T04:20:51.124Z,9.91
2018-03-29T04:21:31.627Z,9.79
2018-03-29T04:22:12.150Z,9.84
2018-03-29T04:22:52.647Z,9.76
2018-03-29T04:23:33.224Z,9.97
2018-03-29T04:24:13.711Z,10.07
2018-03-29T04:24:54.187Z,10.08
2018-03-29T04:25:34.680Z,9.99
2018-03-29T04:26:15.184Z,10.01
2018-03-29T04:26:55.675Z,10.01
2018-03-29T04:27:36.141Z,10.09
2018-03-29T04:28:16.670Z,10.05
2018-03-29T04:28:57.198Z,10.01
2018-03-29T04:29:37.714Z,9.99
2018-03-29T04:30:18.272Z,10.02
2018-03-29T04:30:58.754Z,9.9
2018-03-29T04:31:39.280Z,9.89
2018-03-29T04:32:19.795Z,9.86
2018-03-29T04:33:00.309Z,9.91
2018-03-29T04:33:40.809Z,9.97
2018-03-29T04:34:21.312Z,9.93
2018-03-29T04:35:01.829Z,9.99
2018-03-29T04:35:42.351Z,10.09
2018-03-29T04:36:22.842Z,9.96
2018-03-29T04:37:03.369Z,9.97
2018-03-29T04:37:43.859Z,10.08
2018-03-29T04:38:24.370Z,10.04
2018-03-29T04:39:04.885Z,10.15
2018-03-29T04:39:45.393Z,10.04
2018-03-29T04:40:25.894Z,10.04
2018-03-29T04:41:06.386Z,10.09
2018-03-29T04:41:46.852Z,10.12
2018-03-29T04:42:27.362Z,10.14
2018-03-29T04:43:07.885Z,10.22
2018-03-29T04:43:48.393Z,10.18
2018-03-29T04:44:28.887Z,10.11
2018-03-29T04:45:09.394Z,10.17
2018-03-29T04:45:49.924Z,10.15
2018-03-29T04:46:30.407Z,10.02
2018-03-29T04:47:10.917Z,10.18
2018-03-29T04:47:51.422Z,10.07
2018-03-29T04:48:31.922Z,10.11
2018-03-29T04:49:12.439Z,10.05
2018-03-29T04:49:52.918Z,10.11
2018-03-29T04:50:33.362Z,10.12
2018-03-29T04:51:13.844Z,10.01
2018-03-29T04:51:54.328Z,10.07
2018-03-29T04:52:34.819Z,10.12
2018-03-29T04:53:15.332Z,10.04
2018-03-29T04:53:55.839Z,10.07
2018-03-29T04:54:36.356Z,10.2
2018-03-29T04:55:16.875Z,10.17
2018-03-29T04:55:57.379Z,10.14
2018-03-29T04:56:37.907Z,10.2
2018-03-29T04:57:18.448Z,10.15
2018-03-29T04:57:58.922Z,10.14
2018-03-29T04:58:39.407Z,10.22
2018-03-29T04:59:19.891Z,10.3
2018-03-29T05:00:00.363Z,10.2
2018-03-29T05:00:40.904Z,10.32
2018-03-29T05:01:21.418Z,10.25
2018-03-29T05:02:01.888Z,10.29
2018-03-29T05:02:42.361Z,10.18
2018-03-29T05:03:22.858Z,10.17
2018-03-29T05:04:03.346Z,10.18
2018-03-29T05:04:43.871Z,10.08
2018-03-29T05:05:24.334Z,10.15
2018-03-29T05:06:04.805Z,10.14
2018-03-29T05:06:45.328Z,10.2
2018-03-29T05:07:25.789Z,10.12
2018-03-29T05:08:06.267Z,10.04
2018-03-29T05:08:46.771Z,10.08
2018-03-29T05:09:27.297Z,10.08
2018-03-29T05:11:15.302Z,10.01
2018-03-29T05:11:55.806Z,10.08
2018-03-29T05:12:36.310Z,10.22
2018-03-29T05:13:16.800Z,10.14
2018-03-29T05:13:57.302Z,10.17
2018-03-29T05:14:37.823Z,10.32
2018-03-29T05:15:18.352Z,10.34
2018-03-29T05:15:58.868Z,10.42
2018-03-29T05:16:39.329Z,10.36
2018-03-29T05:17:19.815Z,10.38
2018-03-29T05:18:00.427Z,10.42
2018-03-29T05:18:40.906Z,10.34
2018-03-29T05:19:21.401Z,10.4
2018-03-29T05:20:01.900Z,10.34
2018-03-29T05:20:42.374Z,10.4
2018-03-29T05:21:22.873Z,10.52
2018-03-29T05:22:03.363Z,10.6
2018-03-29T05:22:43.882Z,10.61
2018-03-29T05:23:24.351Z,10.63
2018-03-29T05:24:04.862Z,10.55
2018-03-29T05:24:45.315Z,10.55
2018-03-29T05:25:25.861Z,10.52
2018-03-29T05:26:06.298Z,10.52
2018-03-29T05:26:46.816Z,10.73
2018-03-29T05:27:27.330Z,10.64
2018-03-29T05:28:07.824Z,10.82
2018-03-29T05:28:48.414Z,10.78
2018-03-29T05:29:28.785Z,10.76
2018-03-29T05:30:09.305Z,10.79
2018-03-29T05:30:49.801Z,10.88
2018-03-29T05:31:30.338Z,10.96
2018-03-29T05:32:10.825Z,10.96
2018-03-29T05:32:51.289Z,11
2018-03-29T05:33:31.798Z,11.06
2018-03-29T05:34:12.616Z,11.11
2018-03-29T05:34:53.102Z,11.07
2018-03-29T05:35:33.634Z,11.15
2018-03-29T05:36:14.190Z,11.21
2018-03-29T05:36:54.690Z,11.27
2018-03-29T05:37:35.204Z,11.42
2018-03-29T05:38:15.684Z,11.49
2018-03-29T05:38:56.185Z,11.7
2018-03-29T05:39:36.691Z,11.83
2018-03-29T05:40:17.213Z,11.78
2018-03-29T05:40:57.726Z,11.75
2018-03-29T05:41:38.274Z,11.8
2018-03-29T05:42:18.783Z,11.7
2018-03-29T05:42:59.288Z,11.73
2018-03-29T05:43:39.814Z,11.64
2018-03-29T05:44:20.301Z,11.72
2018-03-29T05:45:00.806Z,11.69
2018-03-29T05:45:41.302Z,11.64
2018-03-29T05:46:21.856Z,11.72
2018-03-29T05:47:02.357Z,11.67
2018-03-29T05:47:42.800Z,11.7
2018-03-29T05:48:23.314Z,11.83
2018-03-29T05:49:03.862Z,11.95
2018-03-29T05:49:44.409Z,11.99
2018-03-29T05:50:24.871Z,11.78
2018-03-29T05:51:05.363Z,11.91
2018-03-29T05:51:45.884Z,11.73
2018-03-29T05:52:26.450Z,11.72
2018-03-29T05:53:06.949Z,11.55
2018-03-29T05:53:47.436Z,11.51
2018-03-29T05:54:27.928Z,11.42
2018-03-29T05:55:08.460Z,11.43
2018-03-29T05:55:48.936Z,11.55
2018-03-29T05:56:29.442Z,11.64
2018-03-29T05:57:09.965Z,11.69
2018-03-29T05:57:50.495Z,11.83
2018-03-29T05:58:30.965Z,11.82
2018-03-29T05:59:11.504Z,11.85
2018-03-29T05:59:51.972Z,11.85
2018-03-29T06:00:32.444Z,11.96
2018-03-29T06:01:12.928Z,11.82
2018-03-29T06:01:53.444Z,11.86
2018-03-29T06:02:33.976Z,11.79
2018-03-29T06:03:14.762Z,11.62
2018-03-29T06:03:55.174Z,11.82
2018-03-29T06:04:35.673Z,11.73
2018-03-29T06:05:16.166Z,11.78
2018-03-29T06:05:56.666Z,11.8
2018-03-29T06:06:37.149Z,11.78
2018-03-29T06:07:17.585Z,11.88
2018-03-29T06:07:58.120Z,11.85
2018-03-29T06:08:38.614Z,11.85
2018-03-29T06:09:19.158Z,11.98
2018-03-29T06:09:59.670Z,12.07
2018-03-29T06:10:40.129Z,12.17
2018-03-29T06:11:20.602Z,12.35
2018-03-29T06:12:01.127Z,12.28
2018-03-29T06:12:41.595Z,12.49
2018-03-29T06:13:22.125Z,12.38
2018-03-29T06:14:02.668Z,12.34
2018-03-29T06:14:43.224Z,12.28
2018-03-29T06:15:23.709Z,12.21
2018-03-29T06:16:04.297Z,12.29
2018-03-29T06:16:44.744Z,12.29
2018-03-29T06:17:25.261Z,12.31
2018-03-29T06:18:05.773Z,12.24
2018-03-29T06:18:46.261Z,12.09
2018-03-29T06:19:26.783Z,11.99
2018-03-29T06:20:07.228Z,12.04
2018-03-29T06:20:47.758Z,11.99
2018-03-29T06:21:28.240Z,12.16
2018-03-29T06:22:08.773Z,12.1
2018-03-29T06:22:49.318Z,12.04
2018-03-29T06:23:29.832Z,12.39
2018-03-29T06:24:10.355Z,12.68
2018-03-29T06:24:50.832Z,12.64
2018-03-29T06:25:31.408Z,12.7
2018-03-29T06:26:11.881Z,12.7
2018-03-29T06:26:52.423Z,12.65
2018-03-29T06:27:32.922Z,12.65
2018-03-29T06:28:13.440Z,12.6
2018-03-29T06:28:53.912Z,12.74
2018-03-29T06:29:34.411Z,12.64
2018-03-29T06:30:14.954Z,12.62
2018-03-29T06:30:55.433Z,12.05
2018-03-29T06:31:35.913Z,12.1
2018-03-29T06:32:16.384Z,12.12
2018-03-29T06:32:56.904Z,12.14
2018-03-29T06:33:37.483Z,12.23
2018-03-29T06:34:17.919Z,12.28
2018-03-29T06:34:58.444Z,12.05
2018-03-29T06:35:38.919Z,11.99
2018-03-29T06:36:19.440Z,12.17
2018-03-29T06:36:59.956Z,12.23
2018-03-29T06:37:40.468Z,12.05
2018-03-29T06:38:20.956Z,12.27
2018-03-29T06:39:01.452Z,11.99
2018-03-29T06:39:41.910Z,11.8
2018-03-29T06:40:22.436Z,11.57
2018-03-29T06:41:02.919Z,11.7
2018-03-29T06:41:43.366Z,11.75
2018-03-29T06:42:23.866Z,11.98
2018-03-29T06:43:04.346Z,11.91
2018-03-29T06:43:44.883Z,11.79
2018-03-29T06:44:25.470Z,11.78
2018-03-29T06:45:05.970Z,11.64
2018-03-29T06:45:46.470Z,11.69
2018-03-29T06:46:26.989Z,11.73
2018-03-29T06:47:07.500Z,11.88
2018-03-29T06:47:47.938Z,11.98
2018-03-29T06:48:28.479Z,11.98
2018-03-29T06:49:08.923Z,11.76
2018-03-29T06:49:49.490Z,11.72
2018-03-29T06:50:30.275Z,11.99
2018-03-29T06:51:10.781Z,12.19
2018-03-29T06:51:51.331Z,12.28
2018-03-29T06:52:31.824Z,12.27
2018-03-29T06:53:12.373Z,12.56
2018-03-29T06:53:52.900Z,12.83
2018-03-29T06:54:33.375Z,12.82
2018-03-29T06:55:13.905Z,12.67
2018-03-29T06:55:54.397Z,12.49
2018-03-29T06:56:34.883Z,12.47
2018-03-29T06:57:15.441Z,12.5
2018-03-29T06:57:55.946Z,12.14
2018-03-29T06:58:36.416Z,11.98
2018-03-29T06:59:16.915Z,11.94
2018-03-29T06:59:57.384Z,11.85
2018-03-29T07:00:37.886Z,11.7
2018-03-29T07:01:18.366Z,11.95
2018-03-29T07:01:58.844Z,12.04
2018-03-29T07:02:39.548Z,12.35
2018-03-29T07:03:20.120Z,12.68
2018-03-29T07:04:00.600Z,12.92
2018-03-29T07:04:41.095Z,12.56
2018-03-29T07:05:21.593Z,12.75
2018-03-29T07:06:02.064Z,12.71
2018-03-29T07:06:42.566Z,12.82
2018-03-29T07:07:23.059Z,12.96
2018-03-29T07:08:03.536Z,12.97
2018-03-29T07:08:44.030Z,12.95
2018-03-29T07:09:24.555Z,13.26
2018-03-29T07:10:05.059Z,13.45
2018-03-29T07:10:45.549Z,13.38
2018-03-29T07:11:26.010Z,13.48
2018-03-29T07:12:06.507Z,13.55
2018-03-29T07:12:46.976Z,13.52
2018-03-29T07:13:27.469Z,13.54
2018-03-29T07:14:08.017Z,13.55
2018-03-29T07:14:48.490Z,13.57
2018-03-29T07:15:29.095Z,13.62
2018-03-29T07:16:09.564Z,13.73
2018-03-29T07:16:50.057Z,13.67
2018-03-29T07:17:30.506Z,13.62
2018-03-29T07:18:11.034Z,13.62
2018-03-29T07:18:51.505Z,13.63
2018-03-29T07:19:32.028Z,13.59
2018-03-29T07:20:12.498Z,13.46
2018-03-29T07:20:53.004Z,13.49
2018-03-29T07:21:33.464Z,13.52
2018-03-29T07:22:14.031Z,13.23
2018-03-29T07:22:54.516Z,13.1
2018-03-29T07:23:35.104Z,13.19
2018-03-29T07:24:15.628Z,13.32
2018-03-29T07:24:56.239Z,13.26
2018-03-29T07:25:36.735Z,13.33
2018-03-29T07:26:17.222Z,13.3
2018-03-29T07:26:57.692Z,13.48
2018-03-29T07:27:38.209Z,13.55
2018-03-29T07:28:18.720Z,13.54
2018-03-29T07:28:59.234Z,13.59
2018-03-29T07:29:39.748Z,13.52
2018-03-29T07:30:20.294Z,13.59
2018-03-29T07:31:00.805Z,13.84
2018-03-29T07:31:41.351Z,14.03
2018-03-29T07:32:21.943Z,14.03
2018-03-29T07:33:02.407Z,14.2
2018-03-29T07:33:42.931Z,14.12
2018-03-29T07:34:23.444Z,14.14
2018-03-29T07:35:03.957Z,14.17
2018-03-29T07:35:44.466Z,14.17
2018-03-29T07:36:24.992Z,14.14
2018-03-29T07:37:05.485Z,14.17
2018-03-29T07:37:46.017Z,14.2
2018-03-29T07:38:26.556Z,13.92
2018-03-29T07:39:07.066Z,13.97
2018-03-29T07:39:47.590Z,13.7
2018-03-29T07:40:28.133Z,13.57
2018-03-29T07:41:08.642Z,13.62
2018-03-29T07:41:49.186Z,13.57
2018-03-29T07:42:29.743Z,13.55
2018-03-29T07:43:10.275Z,13.45
2018-03-29T07:43:50.838Z,13.54
2018-03-29T07:44:31.313Z,13.41
2018-03-29T07:45:11.981Z,13.46
2018-03-29T07:45:52.491Z,13.46
2018-03-29T07:46:33.008Z,13.6
2018-03-29T07:47:13.564Z,13.6
2018-03-29T07:47:54.070Z,13.82
2018-03-29T07:48:34.649Z,13.99
2018-03-29T07:49:15.186Z,14.03
2018-03-29T07:49:55.702Z,14.04
2018-03-29T07:50:36.260Z,14.12
2018-03-29T07:51:16.778Z,14.07
2018-03-29T07:51:57.291Z,14.18
2018-03-29T07:52:37.795Z,14.15
2018-03-29T07:53:18.302Z,14.17
2018-03-29T07:53:59.062Z,14.14
2018-03-29T07:54:39.526Z,14.18
2018-03-29T07:55:20.044Z,14.04
2018-03-29T07:56:00.571Z,13.88
2018-03-29T07:56:41.089Z,13.71
2018-03-29T07:57:21.795Z,13.63
2018-03-29T07:58:02.294Z,13.66
2018-03-29T07:58:42.752Z,13.84
2018-03-29T07:59:23.260Z,13.92
2018-03-29T08:00:03.790Z,13.97
2018-03-29T08:00:44.292Z,14.14
2018-03-29T08:01:24.791Z,14.29
2018-03-29T08:02:05.289Z,14.09
2018-03-29T08:02:45.812Z,13.99
2018-03-29T08:03:26.276Z,14.18
2018-03-29T08:04:06.834Z,14.29
2018-03-29T08:04:47.308Z,14.46
2018-03-29T08:05:27.892Z,14.64
2018-03-29T08:06:08.368Z,14.7
2018-03-29T08:06:48.831Z,14.62
2018-03-29T08:07:29.325Z,14.54
2018-03-29T08:08:09.895Z,14.52
2018-03-29T08:08:50.332Z,14.54
2018-03-29T08:09:30.814Z,14.57
2018-03-29T08:10:11.301Z,14.46
2018-03-29T08:10:51.801Z,14.51
2018-03-29T08:11:32.254Z,14.55
2018-03-29T08:12:12.721Z,14.62
2018-03-29T08:12:53.259Z,14.64
2018-03-29T08:13:33.721Z,14.58
2018-03-29T08:14:14.255Z,14.55
2018-03-29T08:14:54.781Z,14.61
2018-03-29T08:15:35.258Z,14.54
2018-03-29T08:16:15.754Z,14.5
2018-03-29T08:16:56.236Z,14.55
2018-03-29T08:17:36.713Z,14.73
2018-03-29T08:18:17.203Z,14.37
2018-03-29T08:18:57.811Z,14.27
2018-03-29T08:19:38.266Z,14.58
2018-03-29T08:20:18.793Z,14.64
2018-03-29T08:20:59.273Z,14.69
2018-03-29T08:21:39.795Z,14.64
2018-03-29T08:22:20.350Z,14.65
2018-03-29T08:23:00.845Z,14.47
2018-03-29T08:23:41.368Z,14.58
2018-03-29T08:24:21.890Z,14.33
2018-03-29T08:25:02.753Z,14.15
2018-03-29T08:25:43.205Z,14.03
2018-03-29T08:26:23.599Z,13.88
2018-03-29T08:27:04.105Z,14.02
2018-03-29T08:27:44.576Z,14.14
2018-03-29T08:28:25.105Z,14.17
2018-03-29T08:29:05.568Z,14.17
2018-03-29T08:29:46.092Z,13.77
2018-03-29T08:30:26.736Z,13.88
2018-03-29T08:31:07.080Z,14.02
2018-03-29T08:31:47.574Z,14.17
2018-03-29T08:32:28.097Z,14.2
2018-03-29T08:33:08.650Z,14.24
2018-03-29T08:33:49.148Z,14.02
2018-03-29T08:34:29.665Z,13.96
2018-03-29T08:35:10.124Z,13.84
2018-03-29T08:35:50.643Z,13.81
2018-03-29T08:36:31.158Z,13.92
2018-03-29T08:37:11.657Z,14.09
2018-03-29T08:37:52.119Z,13.96
2018-03-29T08:38:32.626Z,13.92
2018-03-29T08:39:13.102Z,14.02
2018-03-29T08:39:53.816Z,14.15
2018-03-29T08:40:34.291Z,14.17
2018-03-29T08:41:14.975Z,14.1
2018-03-29T08:41:55.375Z,14.22
2018-03-29T08:42:35.858Z,14.27
2018-03-29T08:43:16.338Z,14.28
2018-03-29T08:43:56.877Z,14.36
2018-03-29T08:44:37.358Z,14.5
2018-03-29T08:45:17.861Z,14.6
2018-03-29T08:45:58.337Z,14.65
2018-03-29T08:46:38.878Z,14.83
2018-03-29T08:47:19.367Z,14.83